Time;durP1;ratioP1;P1;durP2;ratioP2;P2;SDS_P1;SDS_P2;PMS_P1;PMS_P2;Temp;Humidity;BMP_temperature;BMP_pressure;BME280_temperature;BME280_humidity;BME280_pressure;Samples;Min_cycle;Max_cycle;Signal;HPM_P1;HPM_P2
2021/04/06 00:02:35;;;;;;;24.60;15.75;;;;;;;;;;4996146;28;20045;-77
2021/04/06 00:05:40;;;;;;;24.08;14.75;;;;;;;;;;4984714;28;20045;-77
2021/04/06 00:08:45;;;;;;;20.83;11.27;;;;;;;;;;4984469;28;20057;-77
2021/04/06 00:11:51;;;;;;;16.65;9.57;;;;;;;;;;4984288;28;20525;-76
2021/04/06 00:14:56;;;;;;;16.92;9.15;;;;;;;;;;4995747;28;20054;-77
2021/04/06 00:18:02;;;;;;;17.42;9.65;;;;;;;;;;4995084;28;20043;-77
2021/04/06 00:21:07;;;;;;;21.35;9.90;;;;;;;;;;4995464;28;20038;-77
2021/04/06 00:24:12;;;;;;;19.70;12.30;;;;;;;;;;4983198;28;20039;-76
2021/04/06 00:27:18;;;;;;;27.23;14.02;;;;;;;;;;4995440;28;20156;-77
2021/04/06 00:30:33;;;;;;;23.40;13.48;;;;;;;;;;4994842;28;20041;-76
2021/04/06 00:33:39;;;;;;;21.00;11.55;;;;;;;;;;4994002;28;20054;-76
2021/04/06 00:36:44;;;;;;;20.45;11.80;;;;;;;;;;4995230;28;20058;-77
2021/04/06 00:39:56;;;;;;;20.48;11.75;;;;;;;;;;4995090;28;20128;-77
2021/04/06 00:43:01;;;;;;;12.25;7.22;;;;;;;;;;4994487;28;20053;-75
2021/04/06 00:46:07;;;;;;;9.23;4.88;;;;;;;;;;4983348;28;20042;-77
2021/04/06 00:49:13;;;;;;;9.50;4.10;;;;;;;;;;4983439;28;20038;-76
2021/04/06 00:52:18;;;;;;;12.57;5.32;;;;;;;;;;4982776;28;20478;-76
2021/04/06 00:55:22;;;;;;;11.55;5.50;;;;;;;;;;4995123;28;20387;-77
2021/04/06 00:58:27;;;;;;;11.55;6.80;;;;;;;;;;4994654;28;20050;-77
2021/04/06 01:01:37;;;;;;;13.30;7.72;;;;;;;;;;4983092;28;20043;-76
2021/04/06 01:04:41;;;;;;;15.20;8.05;;;;;;;;;;4994731;28;20491;-77
2021/04/06 01:07:46;;;;;;;21.42;9.88;;;;;;;;;;4994072;28;20510;-77
2021/04/06 01:10:50;;;;;;;19.08;9.32;;;;;;;;;;4994858;28;20042;-77
2021/04/06 01:14:00;;;;;;;12.00;7.18;;;;;;;;;;4994421;28;20043;-76
2021/04/06 01:17:05;;;;;;;16.23;7.22;;;;;;;;;;4994634;28;20038;-76
2021/04/06 01:20:13;;;;;;;16.30;7.05;;;;;;;;;;4994824;28;20038;-76
2021/04/06 01:23:19;;;;;;;10.15;6.78;;;;;;;;;;4994548;28;20034;-77
2021/04/06 01:26:26;;;;;;;14.90;5.57;;;;;;;;;;4994645;28;20050;-76
2021/04/06 01:29:30;;;;;;;13.50;6.63;;;;;;;;;;4994052;28;20042;-78
2021/04/06 01:32:36;;;;;;;11.40;5.35;;;;;;;;;;4994190;28;20043;-76
2021/04/06 01:35:47;;;;;;;10.45;5.70;;;;;;;;;;4994611;28;20057;-77
2021/04/06 01:38:52;;;;;;;11.00;6.35;;;;;;;;;;4994934;28;20050;-76
2021/04/06 01:42:01;;;;;;;8.13;5.25;;;;;;;;;;4982371;28;20405;-76
2021/04/06 01:45:09;;;;;;;8.25;5.32;;;;;;;;;;4998543;28;20375;-76
2021/04/06 01:48:14;;;;;;;8.95;5.25;;;;;;;;;;4994174;28;20046;-76
2021/04/06 01:51:22;;;;;;;12.30;5.50;;;;;;;;;;4994218;28;20038;-76
2021/04/06 01:54:27;;;;;;;10.52;5.95;;;;;;;;;;4993706;28;20049;-77
2021/04/06 01:57:38;;;;;;;16.63;4.85;;;;;;;;;;4993879;28;20041;-76
2021/04/06 02:04:09;;;;;;;8.48;4.00;;;;;;;;;;4993688;28;20482;-76
2021/04/06 02:07:15;;;;;;;8.40;3.88;;;;;;;;;;4994038;28;20541;-76
2021/04/06 02:10:20;;;;;;;11.32;3.83;;;;;;;;;;4982255;28;20038;-75
2021/04/06 02:13:24;;;;;;;12.60;4.15;;;;;;;;;;4994041;28;20059;-76
2021/04/06 02:16:40;;;;;;;15.52;3.38;;;;;;;;;;4993406;28;20035;-77
2021/04/06 02:19:44;;;;;;;10.15;3.28;;;;;;;;;;4993469;28;20038;-76
2021/04/06 02:23:02;;;;;;;7.88;2.80;;;;;;;;;;4993245;28;20038;-76
2021/04/06 02:26:12;;;;;;;12.00;3.28;;;;;;;;;;4981720;28;20034;-75
2021/04/06 02:29:19;;;;;;;7.00;3.10;;;;;;;;;;4993173;28;20061;-77
2021/04/06 02:32:31;;;;;;;3.95;2.50;;;;;;;;;;4993281;28;20494;-76
2021/04/06 02:35:36;;;;;;;6.10;2.95;;;;;;;;;;4992430;28;20042;-76
2021/04/06 02:38:42;;;;;;;5.85;2.58;;;;;;;;;;4981464;28;20042;-77
2021/04/06 02:41:47;;;;;;;4.43;3.00;;;;;;;;;;4993361;28;20046;-76
2021/04/06 02:45:07;;;;;;;5.80;2.65;;;;;;;;;;4992910;28;20050;-76
2021/04/06 02:48:14;;;;;;;5.15;2.63;;;;;;;;;;4993400;28;20042;-77
2021/04/06 02:51:18;;;;;;;6.60;2.65;;;;;;;;;;4993514;28;20034;-74
2021/04/06 02:54:23;;;;;;;6.50;2.67;;;;;;;;;;4981413;28;20050;-76
2021/04/06 02:57:30;;;;;;;7.88;2.92;;;;;;;;;;4992957;28;20042;-76
2021/04/06 03:00:34;;;;;;;6.05;2.67;;;;;;;;;;4993518;28;20474;-76
2021/04/06 03:03:38;;;;;;;7.10;2.80;;;;;;;;;;4980594;28;20050;-76
2021/04/06 03:06:42;;;;;;;4.28;2.70;;;;;;;;;;4993178;28;20034;-77
2021/04/06 03:09:51;;;;;;;14.27;3.30;;;;;;;;;;4993157;28;20486;-77
2021/04/06 03:12:55;;;;;;;6.78;3.60;;;;;;;;;;4992608;28;20050;-77
2021/04/06 03:16:04;;;;;;;10.27;3.33;;;;;;;;;;4992821;28;20038;-76
2021/04/06 03:19:09;;;;;;;9.02;3.50;;;;;;;;;;4996737;28;20034;-76
2021/04/06 03:22:16;;;;;;;7.53;3.58;;;;;;;;;;4984628;28;20038;-76
2021/04/06 03:25:21;;;;;;;4.95;2.90;;;;;;;;;;4996276;28;20390;-76
2021/04/06 03:28:37;;;;;;;8.10;3.50;;;;;;;;;;4996325;28;20038;-77
2021/04/06 03:31:41;;;;;;;11.88;3.78;;;;;;;;;;4996623;28;20374;-76
2021/04/06 03:34:46;;;;;;;12.80;3.60;;;;;;;;;;4995968;28;20043;-76
2021/04/06 03:37:51;;;;;;;5.45;3.47;;;;;;;;;;4984634;28;20047;-76
2021/04/06 03:40:55;;;;;;;8.40;3.60;;;;;;;;;;4996332;28;20038;-75
2021/04/06 03:44:13;;;;;;;10.82;3.58;;;;;;;;;;4996291;28;20034;-76
2021/04/06 03:47:17;;;;;;;4.63;3.20;;;;;;;;;;4996611;28;20595;-75
2021/04/06 03:50:39;;;;;;;9.38;4.05;;;;;;;;;;4996144;28;20375;-76
2021/04/06 03:53:43;;;;;;;8.23;3.65;;;;;;;;;;4996163;28;20050;-77
2021/04/06 03:56:48;;;;;;;7.22;3.90;;;;;;;;;;4996008;28;20034;-75
2021/04/06 03:59:52;;;;;;;12.80;3.90;;;;;;;;;;4996217;28;20383;-76
2021/04/06 04:02:58;;;;;;;9.68;3.78;;;;;;;;;;4995283;28;20038;-76
2021/04/06 04:06:03;;;;;;;8.43;3.70;;;;;;;;;;4983777;28;20145;-77
2021/04/06 04:09:07;;;;;;;8.00;3.60;;;;;;;;;;4995043;28;20042;-76
2021/04/06 04:12:12;;;;;;;5.45;3.90;;;;;;;;;;4995342;28;20382;-76
2021/04/06 04:15:17;;;;;;;14.00;3.85;;;;;;;;;;4994697;28;20043;-76
2021/04/06 04:18:21;;;;;;;10.43;4.40;;;;;;;;;;4995205;28;20046;-76
2021/04/06 04:21:26;;;;;;;8.38;4.55;;;;;;;;;;4995497;28;20046;-76
2021/04/06 04:24:30;;;;;;;11.48;5.15;;;;;;;;;;4995833;28;20376;-77
2021/04/06 04:27:35;;;;;;;9.55;4.50;;;;;;;;;;4995341;28;20379;-76
2021/04/06 04:30:41;;;;;;;9.13;4.00;;;;;;;;;;4994559;28;20042;-75
2021/04/06 04:33:46;;;;;;;5.72;3.90;;;;;;;;;;4994827;28;20046;-76
2021/04/06 04:36:50;;;;;;;11.30;3.85;;;;;;;;;;4996741;28;20064;-77
2021/04/06 04:39:54;;;;;;;7.55;4.25;;;;;;;;;;4996509;28;20042;-76
2021/04/06 04:42:59;;;;;;;8.27;4.38;;;;;;;;;;4995937;28;20038;-76
2021/04/06 04:46:03;;;;;;;7.85;3.80;;;;;;;;;;4995504;28;20038;-75
2021/04/06 04:49:08;;;;;;;9.82;4.05;;;;;;;;;;4995295;28;20612;-76
2021/04/06 04:52:12;;;;;;;9.00;4.63;;;;;;;;;;4995101;28;20034;-75
2021/04/06 04:55:18;;;;;;;8.02;3.95;;;;;;;;;;4995674;28;20042;-76
2021/04/06 04:58:22;;;;;;;12.27;4.60;;;;;;;;;;4983193;28;20368;-76
2021/04/06 05:01:31;;;;;;;7.05;4.45;;;;;;;;;;4995801;28;20034;-75
2021/04/06 05:04:35;;;;;;;7.90;4.10;;;;;;;;;;4995799;28;20042;-74
2021/04/06 05:07:40;;;;;;;14.15;4.40;;;;;;;;;;4983844;28;20042;-75
2021/04/06 05:10:45;;;;;;;12.15;4.68;;;;;;;;;;4996056;28;20393;-72
2021/04/06 05:13:50;;;;;;;10.70;4.60;;;;;;;;;;4993415;28;20051;-63
2021/04/06 05:16:55;;;;;;;8.13;4.70;;;;;;;;;;4993616;28;20042;-63
2021/04/06 05:19:59;;;;;;;10.45;5.30;;;;;;;;;;4993352;28;20364;-64
2021/04/06 05:23:03;;;;;;;9.60;4.18;;;;;;;;;;4993122;28;20035;-64
2021/04/06 05:26:08;;;;;;;10.38;4.80;;;;;;;;;;4993671;28;20478;-64
2021/04/06 05:29:13;;;;;;;18.75;10.70;;;;;;;;;;4981264;28;20047;-65
2021/04/06 05:32:17;;;;;;;11.98;4.47;;;;;;;;;;4981281;28;20061;-63
2021/04/06 05:35:22;;;;;;;10.18;4.43;;;;;;;;;;4973792;28;20047;-63
2021/04/06 05:38:26;;;;;;;12.32;4.07;;;;;;;;;;4973579;28;20051;-61
2021/04/06 05:41:31;;;;;;;205.32;133.00;;;;;;;;;;4983903;28;20049;-61
2021/04/06 05:44:36;;;;;;;7.93;4.50;;;;;;;;;;4973554;28;20054;-61
2021/04/06 05:47:44;;;;;;;12.27;4.15;;;;;;;;;;4973812;28;20364;-59
2021/04/06 05:50:52;;;;;;;9.15;4.45;;;;;;;;;;4984085;28;20054;-58
2021/04/06 05:53:57;;;;;;;10.27;4.93;;;;;;;;;;4983535;28;20051;-59
2021/04/06 05:57:01;;;;;;;11.02;4.95;;;;;;;;;;4973224;28;20039;-57
2021/04/06 06:00:09;;;;;;;20.45;5.47;;;;;;;;;;4973507;28;20058;-58
2021/04/06 06:03:14;;;;;;;14.32;5.22;;;;;;;;;;4973226;28;20574;-59
2021/04/06 06:06:18;;;;;;;79.40;43.88;;;;;;;;;;4973398;28;20042;-60
2021/04/06 06:09:34;;;;;;;15.55;6.90;;;;;;;;;;4973534;28;20050;-59
2021/04/06 06:12:38;;;;;;;15.18;6.40;;;;;;;;;;4983422;28;20047;-60
2021/04/06 06:15:43;;;;;;;14.43;5.53;;;;;;;;;;4973216;28;20034;-58
2021/04/06 06:18:56;;;;;;;14.30;5.93;;;;;;;;;;4972793;28;20031;-58
2021/04/06 06:22:09;;;;;;;8.63;5.22;;;;;;;;;;4972709;28;20038;-58
2021/04/06 06:25:15;;;;;;;11.75;4.78;;;;;;;;;;4973220;28;20031;-59
2021/04/06 06:28:20;;;;;;;9.95;4.22;;;;;;;;;;4973063;28;20054;-58
2021/04/06 06:31:34;;;;;;;13.73;5.55;;;;;;;;;;4972084;28;20039;-60
2021/04/06 06:34:39;;;;;;;15.43;6.45;;;;;;;;;;4990232;28;20053;-58
2021/04/06 06:37:46;;;;;;;12.18;5.53;;;;;;;;;;4991992;28;20046;-59
2021/04/06 06:40:53;;;;;;;12.98;5.43;;;;;;;;;;4991927;28;20041;-60
2021/04/06 06:43:58;;;;;;;13.85;5.68;;;;;;;;;;4991818;28;20057;-59
2021/04/06 06:47:05;;;;;;;11.77;5.50;;;;;;;;;;4992117;28;20050;-59
2021/04/06 06:50:12;;;;;;;13.70;5.85;;;;;;;;;;4991011;28;20578;-59
2021/04/06 06:53:33;;;;;;;11.02;5.95;;;;;;;;;;4991413;28;20061;-60
2021/04/06 06:56:39;;;;;;;19.77;7.50;;;;;;;;;;4980040;28;20050;-60
2021/04/06 06:59:48;;;;;;;19.17;6.93;;;;;;;;;;4991710;28;20042;-59
2021/04/06 07:02:52;;;;;;;13.45;5.35;;;;;;;;;;4979976;28;20513;-59
2021/04/06 07:05:57;;;;;;;18.35;7.30;;;;;;;;;;4991708;28;20046;-59
2021/04/06 07:09:02;;;;;;;17.98;6.95;;;;;;;;;;4991768;28;20046;-60
2021/04/06 07:12:08;;;;;;;17.52;8.30;;;;;;;;;;4979776;28;20052;-59
2021/04/06 07:15:14;;;;;;;13.38;6.35;;;;;;;;;;4991514;28;20061;-60
2021/04/06 07:18:21;;;;;;;13.43;5.95;;;;;;;;;;4979488;28;20063;-61
2021/04/06 07:21:26;;;;;;;32.28;8.60;;;;;;;;;;4991650;28;20050;-59
2021/04/06 07:24:35;;;;;;;19.40;5.53;;;;;;;;;;4991606;28;20042;-59
2021/04/06 07:27:43;;;;;;;16.42;6.05;;;;;;;;;;4991551;28;20045;-60
2021/04/06 07:30:48;;;;;;;13.15;5.72;;;;;;;;;;4990834;28;20034;-59
2021/04/06 07:33:53;;;;;;;20.25;6.05;;;;;;;;;;4990390;28;20047;-59
2021/04/06 07:37:03;;;;;;;11.18;5.25;;;;;;;;;;4991789;28;20031;-59
2021/04/06 07:40:12;;;;;;;13.15;6.05;;;;;;;;;;4991449;28;20038;-59
2021/04/06 07:43:17;;;;;;;11.88;6.40;;;;;;;;;;4979345;28;20065;-59
2021/04/06 07:46:34;;;;;;;23.75;6.75;;;;;;;;;;4991429;28;20035;-59
2021/04/06 07:49:39;;;;;;;15.02;6.65;;;;;;;;;;4991593;28;20049;-61
2021/04/06 07:52:44;;;;;;;30.45;7.28;;;;;;;;;;4990610;28;20049;-60
2021/04/06 07:55:49;;;;;;;21.02;6.72;;;;;;;;;;4991356;28;20051;-60
2021/04/06 07:58:54;;;;;;;11.40;5.13;;;;;;;;;;4991691;28;20034;-59
2021/04/06 08:02:02;;;;;;;15.43;5.53;;;;;;;;;;4991313;28;20046;-59
2021/04/06 08:05:10;;;;;;;16.30;5.72;;;;;;;;;;4995266;28;20038;-59
2021/04/06 08:08:33;;;;;;;19.40;7.18;;;;;;;;;;4995165;28;20046;-59
2021/04/06 08:12:01;;;;;;;37.38;19.65;;;;;;;;;;4994803;28;20034;-60
2021/04/06 08:15:14;;;;;;;34.72;15.13;;;;;;;;;;4994743;28;20072;-60
2021/04/06 08:18:26;;;;;;;20.65;8.40;;;;;;;;;;4994787;28;20049;-59
2021/04/06 08:21:30;;;;;;;17.65;8.80;;;;;;;;;;4994891;28;20030;-61
2021/04/06 08:24:35;;;;;;;17.70;7.50;;;;;;;;;;4994194;28;20031;-60
2021/04/06 08:27:40;;;;;;;34.00;16.65;;;;;;;;;;4994749;28;20046;-60
2021/04/06 08:30:45;;;;;;;23.25;11.70;;;;;;;;;;4993924;28;20045;-59
2021/04/06 08:33:50;;;;;;;23.20;7.18;;;;;;;;;;4994035;28;20053;-59
2021/04/06 08:37:14;;;;;;;17.60;6.15;;;;;;;;;;4994274;28;20047;-58
2021/04/06 08:40:38;;;;;;;27.10;6.70;;;;;;;;;;4994074;28;20041;-60
2021/04/06 08:43:46;;;;;;;12.82;5.40;;;;;;;;;;4994176;28;20057;-62
2021/04/06 08:46:50;;;;;;;22.20;7.80;;;;;;;;;;4994536;28;20521;-60
2021/04/06 08:49:54;;;;;;;22.45;7.28;;;;;;;;;;4994215;28;20035;-60
2021/04/06 08:53:03;;;;;;;25.25;6.43;;;;;;;;;;4993800;28;20501;-59
2021/04/06 08:56:12;;;;;;;25.52;7.35;;;;;;;;;;4993713;28;20050;-60
2021/04/06 08:59:20;;;;;;;24.70;7.30;;;;;;;;;;4993841;28;20035;-59
2021/04/06 09:02:26;;;;;;;21.08;4.13;;;;;;;;;;4993691;28;20038;-59
2021/04/06 09:05:30;;;;;;;22.38;4.68;;;;;;;;;;4993968;28;20038;-60
2021/04/06 09:08:49;;;;;;;10.85;3.25;;;;;;;;;;4993713;28;20034;-59
2021/04/06 09:11:57;;;;;;;10.50;3.33;;;;;;;;;;4993422;28;20516;-58
2021/04/06 09:15:03;;;;;;;14.00;4.20;;;;;;;;;;4992172;28;20065;-62
2021/04/06 09:18:08;;;;;;;18.33;3.83;;;;;;;;;;4993171;28;20065;-60
2021/04/06 09:21:12;;;;;;;16.90;5.05;;;;;;;;;;4993309;28;20058;-60
2021/04/06 09:24:17;;;;;;;14.93;4.90;;;;;;;;;;4993099;28;20038;-61
2021/04/06 09:27:22;;;;;;;14.90;4.13;;;;;;;;;;4992290;28;20046;-61
2021/04/06 09:30:33;;;;;;;12.75;4.00;;;;;;;;;;4992436;28;20038;-60
2021/04/06 09:33:38;;;;;;;13.48;4.18;;;;;;;;;;4992828;28;20511;-60
2021/04/06 09:36:43;;;;;;;9.07;3.70;;;;;;;;;;4993313;28;20042;-60
2021/04/06 09:39:54;;;;;;;12.80;3.45;;;;;;;;;;4992991;28;20567;-60
2021/04/06 09:43:00;;;;;;;13.15;3.53;;;;;;;;;;4993309;28;20038;-58
2021/04/06 09:46:04;;;;;;;11.20;3.63;;;;;;;;;;4993062;28;20046;-59
2021/04/06 09:49:10;;;;;;;14.98;4.18;;;;;;;;;;4980903;28;20041;-60
2021/04/06 09:52:19;;;;;;;14.40;3.80;;;;;;;;;;4990926;28;20049;-60
2021/04/06 09:55:25;;;;;;;10.57;3.70;;;;;;;;;;4992870;28;20053;-60
2021/04/06 09:58:29;;;;;;;10.55;3.40;;;;;;;;;;4991594;28;20054;-59
2021/04/06 10:01:36;;;;;;;11.10;3.53;;;;;;;;;;4991919;28;20045;-59
2021/04/06 10:04:45;;;;;;;8.43;3.05;;;;;;;;;;4992400;28;20051;-59
2021/04/06 10:07:50;;;;;;;15.45;3.15;;;;;;;;;;4992556;28;20042;-58
2021/04/06 10:10:54;;;;;;;27.00;4.40;;;;;;;;;;4992635;28;20042;-60
2021/04/06 10:13:58;;;;;;;23.33;4.35;;;;;;;;;;4992393;28;20058;-60
2021/04/06 10:17:08;;;;;;;9.52;3.35;;;;;;;;;;4980404;28;20336;-60
2021/04/06 10:20:14;;;;;;;10.27;4.13;;;;;;;;;;4992399;28;20042;-60
2021/04/06 10:23:33;;;;;;;17.85;3.72;;;;;;;;;;4992252;28;20038;-60
2021/04/06 10:26:38;;;;;;;15.60;3.90;;;;;;;;;;4992347;28;20034;-59
2021/04/06 10:29:43;;;;;;;13.60;3.38;;;;;;;;;;4992666;28;20070;-60
2021/04/06 10:32:48;;;;;;;12.68;3.58;;;;;;;;;;4991587;28;20041;-60
2021/04/06 10:35:58;;;;;;;13.75;3.13;;;;;;;;;;4992478;28;20042;-60
2021/04/06 10:39:05;;;;;;;16.17;3.30;;;;;;;;;;4991243;28;20039;-60
2021/04/06 10:42:11;;;;;;;8.38;3.03;;;;;;;;;;4992151;28;20398;-61
2021/04/06 10:45:15;;;;;;;11.07;3.45;;;;;;;;;;4992520;28;20117;-61
2021/04/06 10:48:21;;;;;;;10.50;2.78;;;;;;;;;;4991899;28;20049;-62
2021/04/06 10:51:26;;;;;;;9.93;3.22;;;;;;;;;;4992104;28;20043;-60
2021/04/06 10:54:30;;;;;;;9.98;3.65;;;;;;;;;;4991606;28;20054;-62
2021/04/06 10:57:36;;;;;;;11.23;3.65;;;;;;;;;;4992155;28;20478;-59
2021/04/06 11:00:41;;;;;;;17.08;3.30;;;;;;;;;;4991614;28;20038;-62
2021/04/06 11:03:45;;;;;;;24.95;3.72;;;;;;;;;;4979448;28;20039;-60
2021/04/06 11:06:58;;;;;;;16.65;3.55;;;;;;;;;;4991817;28;20042;-60
2021/04/06 11:10:09;;;;;;;17.75;3.35;;;;;;;;;;4979582;28;20047;-61
2021/04/06 11:13:14;;;;;;;21.52;3.65;;;;;;;;;;4991536;28;20042;-59
2021/04/06 11:16:19;;;;;;;124.63;70.75;;;;;;;;;;4992111;28;20061;-61
2021/04/06 11:19:28;;;;;;;23.10;5.07;;;;;;;;;;4991586;28;20050;-61
2021/04/06 11:22:32;;;;;;;47.35;5.50;;;;;;;;;;4991844;28;20070;-59
2021/04/06 11:25:39;;;;;;;11.82;3.75;;;;;;;;;;4991570;28;20059;-60
2021/04/06 11:28:45;;;;;;;27.48;4.65;;;;;;;;;;4991837;28;20049;-60
2021/04/06 11:31:50;;;;;;;48.17;5.60;;;;;;;;;;4990675;28;20042;-60
2021/04/06 11:34:55;;;;;;;33.90;3.78;;;;;;;;;;4990126;28;20043;-60
2021/04/06 11:38:00;;;;;;;19.92;3.42;;;;;;;;;;4992087;28;20433;-60
2021/04/06 11:41:05;;;;;;;21.33;4.15;;;;;;;;;;4995510;28;20501;-60
2021/04/06 11:44:09;;;;;;;24.27;4.43;;;;;;;;;;4995154;28;20043;-60
2021/04/06 11:47:13;;;;;;;26.92;3.53;;;;;;;;;;4982977;28;20403;-61
2021/04/06 11:50:18;;;;;;;31.00;4.28;;;;;;;;;;4995358;28;20410;-61
2021/04/06 11:53:23;;;;;;;32.20;4.10;;;;;;;;;;4994351;28;20046;-59
2021/04/06 11:56:27;;;;;;;31.92;5.15;;;;;;;;;;4983035;28;20042;-61
2021/04/06 11:59:31;;;;;;;19.08;3.50;;;;;;;;;;4983127;28;20050;-61
2021/04/06 12:02:36;;;;;;;35.15;6.20;;;;;;;;;;4994914;28;20030;-60
2021/04/06 12:05:43;;;;;;;25.98;3.72;;;;;;;;;;4995272;28;20042;-61
2021/04/06 12:08:47;;;;;;;41.75;3.90;;;;;;;;;;4994803;28;20039;-59
2021/04/06 12:11:52;;;;;;;34.88;4.47;;;;;;;;;;4994169;28;20049;-61
2021/04/06 12:14:56;;;;;;;51.42;5.90;;;;;;;;;;4994432;28;20517;-62
2021/04/06 12:18:01;;;;;;;28.23;3.78;;;;;;;;;;4994718;28;20406;-60
2021/04/06 12:21:08;;;;;;;37.22;4.55;;;;;;;;;;4994819;28;20509;-61
2021/04/06 12:24:12;;;;;;;39.70;4.15;;;;;;;;;;4993301;28;20410;-60
2021/04/06 12:27:17;;;;;;;34.40;4.25;;;;;;;;;;4994582;28;20042;-60
2021/04/06 12:30:21;;;;;;;17.42;3.08;;;;;;;;;;4994349;28;20505;-60
2021/04/06 12:33:26;;;;;;;20.00;3.25;;;;;;;;;;4993320;28;20049;-61
2021/04/06 12:36:30;;;;;;;25.25;3.78;;;;;;;;;;4993523;28;20052;-60
2021/04/06 12:39:34;;;;;;;15.93;2.75;;;;;;;;;;4994445;28;20030;-59
2021/04/06 12:42:39;;;;;;;27.95;3.88;;;;;;;;;;4994212;28;20042;-61
2021/04/06 12:45:44;;;;;;;38.75;4.70;;;;;;;;;;4982018;28;20042;-60
2021/04/06 12:48:49;;;;;;;39.05;3.97;;;;;;;;;;4993557;28;20042;-61
2021/04/06 12:51:53;;;;;;;36.53;5.03;;;;;;;;;;4994301;28;20401;-61
2021/04/06 12:54:57;;;;;;;22.88;3.75;;;;;;;;;;4992939;28;20055;-61
2021/04/06 12:58:02;;;;;;;38.58;7.90;;;;;;;;;;4981941;28;20433;-61
2021/04/06 13:01:06;;;;;;;23.50;3.80;;;;;;;;;;4993856;28;20061;-60
2021/04/06 13:04:10;;;;;;;25.73;3.75;;;;;;;;;;4981865;28;20034;-61
2021/04/06 13:07:15;;;;;;;41.38;4.07;;;;;;;;;;4993601;28;20494;-62
2021/04/06 13:10:21;;;;;;;10.27;3.03;;;;;;;;;;4992970;28;20049;-61
2021/04/06 13:13:26;;;;;;;16.48;3.80;;;;;;;;;;4993050;28;20054;-60
2021/04/06 13:16:32;;;;;;;28.80;3.53;;;;;;;;;;4993422;28;20042;-60
2021/04/06 13:19:37;;;;;;;31.23;4.90;;;;;;;;;;4993466;28;20030;-60
2021/04/06 13:22:43;;;;;;;19.48;3.78;;;;;;;;;;4993516;28;20042;-61
2021/04/06 13:25:47;;;;;;;26.20;4.35;;;;;;;;;;4993609;28;20047;-60
2021/04/06 13:28:52;;;;;;;25.23;4.10;;;;;;;;;;4993348;28;20053;-61
2021/04/06 13:31:56;;;;;;;33.42;4.40;;;;;;;;;;4992716;28;20040;-61
2021/04/06 13:35:00;;;;;;;27.75;3.55;;;;;;;;;;4992082;28;20042;-63
2021/04/06 13:38:05;;;;;;;42.90;4.65;;;;;;;;;;4993451;28;20046;-61
2021/04/06 13:41:10;;;;;;;48.00;5.47;;;;;;;;;;4981508;28;20049;-60
2021/04/06 13:44:15;;;;;;;26.65;4.53;;;;;;;;;;4993058;28;20061;-60
2021/04/06 13:47:19;;;;;;;28.95;4.38;;;;;;;;;;4981150;28;20049;-61
2021/04/06 13:50:24;;;;;;;23.90;4.70;;;;;;;;;;4991802;28;20416;-63
2021/04/06 13:53:29;;;;;;;19.50;5.20;;;;;;;;;;4992802;28;20042;-61
2021/04/06 13:56:33;;;;;;;18.02;3.83;;;;;;;;;;4992776;28;20046;-60
2021/04/06 13:59:38;;;;;;;27.42;4.35;;;;;;;;;;4992260;28;20045;-59
2021/04/06 14:02:42;;;;;;;28.67;4.90;;;;;;;;;;4992553;28;20054;-59
2021/04/06 14:05:49;;;;;;;35.75;5.60;;;;;;;;;;4992567;28;20398;-60
2021/04/06 14:08:53;;;;;;;34.67;6.25;;;;;;;;;;4992709;28;20061;-59
2021/04/06 14:11:58;;;;;;;36.78;5.20;;;;;;;;;;4992636;28;20042;-61
2021/04/06 14:15:03;;;;;;;35.00;5.72;;;;;;;;;;4992247;28;20058;-61
2021/04/06 14:18:08;;;;;;;22.60;4.88;;;;;;;;;;4980448;28;20487;-60
2021/04/06 14:21:12;;;;;;;31.65;5.18;;;;;;;;;;4991722;28;20061;-61
2021/04/06 14:24:17;;;;;;;42.47;6.03;;;;;;;;;;4991964;28;20041;-60
2021/04/06 14:27:22;;;;;;;39.60;6.40;;;;;;;;;;4991040;28;20395;-61
2021/04/06 14:30:28;;;;;;;52.53;7.68;;;;;;;;;;4991441;28;20034;-61
2021/04/06 14:33:33;;;;;;;30.30;6.63;;;;;;;;;;4991603;28;20593;-61
2021/04/06 14:36:38;;;;;;;42.75;8.18;;;;;;;;;;4992376;28;20034;-61
2021/04/06 14:39:42;;;;;;;26.10;5.35;;;;;;;;;;4980108;28;20033;-61
2021/04/06 14:43:06;;;;;;;27.85;6.43;;;;;;;;;;4991548;28;20055;-62
2021/04/06 14:46:11;;;;;;;38.03;6.40;;;;;;;;;;4980110;28;20045;-62
2021/04/06 14:49:15;;;;;;;51.20;6.75;;;;;;;;;;4991888;28;20050;-61
2021/04/06 14:52:20;;;;;;;26.98;5.40;;;;;;;;;;4992102;28;20038;-65
2021/04/06 14:55:25;;;;;;;40.03;5.88;;;;;;;;;;4991637;28;20050;-60
2021/04/06 14:58:31;;;;;;;32.83;6.38;;;;;;;;;;4991869;28;20049;-62
2021/04/06 15:01:35;;;;;;;29.08;6.05;;;;;;;;;;4979699;28;20054;-60
2021/04/06 15:04:40;;;;;;;35.05;7.07;;;;;;;;;;4991755;28;20557;-61
2021/04/06 15:07:45;;;;;;;35.47;6.55;;;;;;;;;;4991688;28;20034;-62
2021/04/06 15:10:50;;;;;;;30.42;5.60;;;;;;;;;;4991676;28;20034;-61
2021/04/06 15:13:55;;;;;;;43.38;6.60;;;;;;;;;;4994486;28;20042;-60
2021/04/06 15:16:59;;;;;;;34.97;6.35;;;;;;;;;;4996004;28;20498;-61
2021/04/06 15:20:08;;;;;;;30.08;5.90;;;;;;;;;;4995721;28;20045;-61
2021/04/06 15:23:13;;;;;;;28.17;6.30;;;;;;;;;;4995303;28;20042;-61
2021/04/06 15:26:20;;;;;;;41.25;6.20;;;;;;;;;;4995766;28;20046;-62
2021/04/06 15:29:25;;;;;;;34.63;6.18;;;;;;;;;;4995299;28;20046;-60
2021/04/06 15:32:29;;;;;;;38.20;6.28;;;;;;;;;;4995618;28;20046;-62
2021/04/06 15:35:35;;;;;;;35.38;7.70;;;;;;;;;;4994696;28;20513;-60
2021/04/06 15:38:40;;;;;;;60.78;21.42;;;;;;;;;;4994345;28;20030;-62
2021/04/06 15:41:45;;;;;;;100.95;67.15;;;;;;;;;;4994939;28;20053;-61
2021/04/06 15:44:49;;;;;;;46.67;20.30;;;;;;;;;;4995149;28;20053;-61
2021/04/06 15:47:54;;;;;;;29.08;10.48;;;;;;;;;;4995080;28;20045;-62
2021/04/06 15:50:59;;;;;;;25.52;7.05;;;;;;;;;;4983310;28;20049;-62
2021/04/06 15:54:04;;;;;;;39.78;8.88;;;;;;;;;;4995200;28;20539;-62
2021/04/06 15:57:09;;;;;;;35.67;8.52;;;;;;;;;;4994301;28;20038;-63
2021/04/06 16:00:14;;;;;;;25.92;6.80;;;;;;;;;;4993920;28;20042;-62
2021/04/06 16:03:22;;;;;;;28.58;8.43;;;;;;;;;;4982945;28;20046;-62
2021/04/06 16:06:28;;;;;;;32.28;7.53;;;;;;;;;;4982847;28;20034;-61
2021/04/06 16:09:32;;;;;;;33.35;8.15;;;;;;;;;;4995035;28;20049;-61
2021/04/06 16:12:36;;;;;;;33.72;8.38;;;;;;;;;;4994706;28;20043;-62
2021/04/06 16:15:41;;;;;;;39.30;8.68;;;;;;;;;;4994509;28;20046;-61
2021/04/06 16:18:47;;;;;;;37.60;7.68;;;;;;;;;;4994110;28;20034;-62
2021/04/06 16:21:51;;;;;;;34.88;8.63;;;;;;;;;;4993786;28;20375;-62
2021/04/06 16:24:56;;;;;;;30.48;5.97;;;;;;;;;;4994693;28;20042;-62
2021/04/06 16:28:00;;;;;;;29.73;7.40;;;;;;;;;;4994489;28;20406;-61
2021/04/06 16:31:05;;;;;;;33.58;8.70;;;;;;;;;;4994167;28;20030;-61
2021/04/06 16:34:09;;;;;;;32.25;8.68;;;;;;;;;;4994025;28;20046;-60
2021/04/06 16:37:14;;;;;;;44.03;10.23;;;;;;;;;;4994298;28;20030;-62
2021/04/06 16:40:19;;;;;;;34.10;8.57;;;;;;;;;;4994340;28;20053;-60
2021/04/06 16:43:24;;;;;;;35.53;8.50;;;;;;;;;;4993987;28;20030;-61
2021/04/06 16:46:29;;;;;;;36.17;8.60;;;;;;;;;;4994243;28;20116;-62
2021/04/06 16:49:33;;;;;;;35.80;8.85;;;;;;;;;;4994028;28;20084;-60
2021/04/06 16:52:38;;;;;;;32.80;8.02;;;;;;;;;;4993960;28;20042;-62
2021/04/06 16:55:42;;;;;;;32.28;8.65;;;;;;;;;;4993744;28;20069;-61
2021/04/06 16:58:50;;;;;;;35.33;9.43;;;;;;;;;;4992897;28;20037;-62
2021/04/06 17:01:55;;;;;;;39.20;8.82;;;;;;;;;;4993767;28;20046;-63
2021/04/06 17:04:59;;;;;;;36.65;8.73;;;;;;;;;;4981540;28;20041;-61
2021/04/06 17:08:04;;;;;;;47.72;8.55;;;;;;;;;;4993588;28;20066;-59
2021/04/06 17:11:08;;;;;;;30.13;8.82;;;;;;;;;;4981852;28;20038;-61
2021/04/06 17:14:13;;;;;;;43.47;8.55;;;;;;;;;;4993744;28;20050;-65
2021/04/06 17:17:17;;;;;;;33.05;7.70;;;;;;;;;;4993303;28;20041;-62
2021/04/06 17:20:22;;;;;;;35.08;7.88;;;;;;;;;;4993560;28;20052;-61
2021/04/06 17:23:27;;;;;;;42.90;10.18;;;;;;;;;;4992272;28;20045;-62
2021/04/06 17:26:32;;;;;;;35.67;7.70;;;;;;;;;;4992608;28;20054;-61
2021/04/06 17:29:37;;;;;;;36.50;8.27;;;;;;;;;;4980964;28;20038;-61
2021/04/06 17:32:41;;;;;;;44.90;9.43;;;;;;;;;;4993064;28;20046;-60
2021/04/06 17:35:46;;;;;;;45.42;11.23;;;;;;;;;;4992271;28;20057;-60
2021/04/06 17:38:51;;;;;;;40.17;10.50;;;;;;;;;;4993195;28;20058;-61
2021/04/06 17:41:55;;;;;;;38.35;9.98;;;;;;;;;;4993241;28;20509;-61
2021/04/06 17:44:59;;;;;;;29.98;10.70;;;;;;;;;;4992790;28;20043;-61
2021/04/06 17:48:05;;;;;;;44.85;11.50;;;;;;;;;;4993040;28;20057;-60
2021/04/06 17:51:12;;;;;;;45.13;8.88;;;;;;;;;;4992764;28;20044;-61
2021/04/06 17:54:17;;;;;;;43.05;11.52;;;;;;;;;;4992908;28;20058;-60
2021/04/06 17:57:21;;;;;;;41.03;10.20;;;;;;;;;;4993062;28;20045;-61
2021/04/06 18:00:30;;;;;;;47.15;9.75;;;;;;;;;;4992909;28;20053;-60
2021/04/06 18:03:35;;;;;;;37.45;9.20;;;;;;;;;;4991845;28;20399;-60
2021/04/06 18:06:39;;;;;;;42.95;10.02;;;;;;;;;;4981393;28;20482;-76
2021/04/06 18:09:44;;;;;;;35.83;9.05;;;;;;;;;;4981018;28;20049;-76
2021/04/06 18:12:48;;;;;;;43.95;9.20;;;;;;;;;;4993761;28;20050;-75
2021/04/06 18:15:52;;;;;;;48.10;8.77;;;;;;;;;;4993819;28;20402;-76
2021/04/06 18:18:57;;;;;;;42.28;11.32;;;;;;;;;;4994519;28;20057;-76
2021/04/06 18:22:01;;;;;;;52.10;12.70;;;;;;;;;;4993729;28;20054;-75
2021/04/06 18:25:06;;;;;;;47.90;12.02;;;;;;;;;;4981926;28;20045;-75